Time;durP1;ratioP1;P1;durP2;ratioP2;P2;SDS_P1;SDS_P2;PMS_P1;PMS_P2;Temp;Humidity;BMP_temperature;BMP_pressure;BME280_temperature;BME280_humidity;BME280_pressure;Samples;Min_cycle;Max_cycle;Signal;HPM_P1;HPM_P2
2021/10/24 00:01:45;;;;;;;7.43;5.47;;;11.10;99.90;;;;;;5004893;28;20568;-80
2021/10/24 00:04:12;;;;;;;13.00;5.97;;;11.00;99.90;;;;;;4995931;28;20198;-80
2021/10/24 00:06:39;;;;;;;9.27;6.55;;;11.00;99.90;;;;;;4997653;28;20704;-81
2021/10/24 00:09:07;;;;;;;9.23;5.77;;;11.00;99.90;;;;;;5004222;28;20195;-80
2021/10/24 00:11:35;;;;;;;7.28;5.50;;;11.00;99.90;;;;;;4998401;28;20476;-79
2021/10/24 00:14:04;;;;;;;10.23;7.75;;;11.00;99.90;;;;;;5000093;28;20207;-80
2021/10/24 00:16:32;;;;;;;12.20;6.10;;;10.90;99.90;;;;;;5004076;28;20618;-80
2021/10/24 00:19:01;;;;;;;12.10;5.50;;;10.90;99.90;;;;;;5002281;28;20520;-80
2021/10/24 00:21:28;;;;;;;10.13;5.50;;;10.90;99.90;;;;;;5003370;28;20208;-80
2021/10/24 00:23:55;;;;;;;10.95;5.38;;;10.90;99.90;;;;;;5000342;28;20222;-80
2021/10/24 00:26:23;;;;;;;10.93;5.47;;;10.90;99.90;;;;;;5005412;28;20799;-82
2021/10/24 00:28:50;;;;;;;7.78;5.57;;;10.80;99.90;;;;;;4996110;28;20717;-80
2021/10/24 00:31:17;;;;;;;7.45;5.10;;;10.80;99.90;;;;;;5003970;28;20221;-82
2021/10/24 00:33:44;;;;;;;9.70;5.45;;;10.80;99.90;;;;;;5000144;28;20205;-80
2021/10/24 00:36:12;;;;;;;7.63;5.60;;;10.80;99.90;;;;;;5003205;28;20197;-80
2021/10/24 00:38:39;;;;;;;11.52;6.15;;;10.80;99.90;;;;;;4997981;28;20194;-80
2021/10/24 00:41:07;;;;;;;19.63;5.82;;;10.80;99.90;;;;;;4996738;28;20206;-80
2021/10/24 00:43:33;;;;;;;9.77;5.40;;;10.80;99.90;;;;;;5000393;28;20195;-82
2021/10/24 00:46:00;;;;;;;9.80;4.95;;;10.80;99.90;;;;;;5001672;28;20198;-80
2021/10/24 00:48:28;;;;;;;7.05;4.93;;;10.70;99.90;;;;;;4999909;28;20202;-80
2021/10/24 00:50:55;;;;;;;7.95;4.40;;;10.70;99.90;;;;;;5002410;28;20222;-80
2021/10/24 00:53:24;;;;;;;5.45;4.95;;;10.70;99.90;;;;;;4999653;28;20653;-80
2021/10/24 00:55:51;;;;;;;7.55;5.03;;;10.70;99.90;;;;;;5001747;28;20246;-80
2021/10/24 00:58:18;;;;;;;10.80;5.38;;;10.70;99.90;;;;;;4999971;28;20192;-83
2021/10/24 01:00:45;;;;;;;8.88;5.85;;;10.70;99.90;;;;;;5003541;28;20206;-83
2021/10/24 01:03:13;;;;;;;10.73;5.13;;;10.70;99.90;;;;;;5001676;28;20198;-83
2021/10/24 01:05:40;;;;;;;7.95;5.40;;;10.60;99.90;;;;;;5002687;28;20771;-79
2021/10/24 01:08:09;;;;;;;6.50;4.78;;;10.60;99.90;;;;;;5003546;28;20655;-81
2021/10/24 01:10:38;;;;;;;6.38;5.28;;;10.60;99.90;;;;;;5006740;28;20218;-80
2021/10/24 01:13:05;;;;;;;6.45;5.53;;;10.60;99.90;;;;;;5000130;28;20233;-80
2021/10/24 01:15:33;;;;;;;6.57;5.18;;;10.60;99.90;;;;;;5002334;28;20201;-83
2021/10/24 01:18:00;;;;;;;7.63;5.28;;;10.60;99.90;;;;;;5001677;28;20194;-80
2021/10/24 01:20:28;;;;;;;14.15;5.25;;;10.60;99.90;;;;;;4999001;28;20537;-80
2021/10/24 01:22:57;;;;;;;14.13;5.82;;;10.60;99.90;;;;;;5005156;28;20612;-82
2021/10/24 01:25:24;;;;;;;14.40;6.00;;;10.60;99.90;;;;;;4999768;28;20205;-80
2021/10/24 01:27:51;;;;;;;5.93;4.63;;;10.50;99.90;;;;;;4996638;28;20221;-80
2021/10/24 01:30:20;;;;;;;6.13;4.90;;;10.50;99.90;;;;;;4995724;28;20697;-80
2021/10/24 01:32:47;;;;;;;7.20;5.10;;;10.50;99.90;;;;;;5000808;28;20199;-83
2021/10/24 01:35:14;;;;;;;10.73;5.00;;;10.50;99.90;;;;;;5003356;28;20557;-82
2021/10/24 01:37:43;;;;;;;5.75;5.00;;;10.50;99.90;;;;;;5005379;28;20209;-81
2021/10/24 01:40:13;;;;;;;6.57;4.68;;;10.50;99.90;;;;;;4999141;28;20204;-80
2021/10/24 01:42:48;;;;;;;5.30;4.90;;;10.50;99.90;;;;;;4991964;28;20209;-81
2021/10/24 01:45:17;;;;;;;10.32;5.00;;;10.50;99.90;;;;;;5001336;28;20202;-82
2021/10/24 01:47:44;;;;;;;5.30;4.80;;;10.50;99.90;;;;;;5001494;28;20194;-80
2021/10/24 01:50:11;;;;;;;14.35;5.10;;;10.40;99.90;;;;;;5001258;28;20217;-80
2021/10/24 01:52:42;;;;;;;6.50;5.20;;;10.40;99.90;;;;;;4999606;28;20194;-80
2021/10/24 01:55:11;;;;;;;6.93;4.88;;;10.40;99.90;;;;;;5002764;28;20218;-83
2021/10/24 01:57:38;;;;;;;4.50;4.10;;;10.40;99.90;;;;;;5000071;28;20201;-82
2021/10/24 02:00:06;;;;;;;5.65;4.60;;;10.40;99.90;;;;;;5005242;28;20213;-82
2021/10/24 02:02:34;;;;;;;7.65;4.75;;;10.40;99.90;;;;;;5004373;28;20653;-80
2021/10/24 02:05:01;;;;;;;9.05;5.60;;;10.40;99.90;;;;;;5006183;28;20212;-80
2021/10/24 02:07:29;;;;;;;7.97;4.60;;;10.40;99.90;;;;;;5003669;28;20568;-80
2021/10/24 02:09:56;;;;;;;8.45;4.72;;;10.30;99.90;;;;;;5000377;28;20208;-82
2021/10/24 02:12:26;;;;;;;11.82;5.43;;;10.30;99.90;;;;;;5006831;28;20202;-80
2021/10/24 02:14:53;;;;;;;11.57;5.05;;;10.30;99.90;;;;;;4999526;28;20203;-81
2021/10/24 02:17:20;;;;;;;8.57;5.05;;;10.30;99.90;;;;;;5007453;28;20193;-81
2021/10/24 02:19:47;;;;;;;11.98;5.47;;;10.30;99.90;;;;;;5004283;28;20798;-80
2021/10/24 02:22:13;;;;;;;6.32;5.43;;;10.30;99.90;;;;;;4998044;28;20696;-80
2021/10/24 02:24:41;;;;;;;10.73;5.28;;;10.30;99.90;;;;;;5000653;28;20198;-80
2021/10/24 02:27:08;;;;;;;9.27;5.50;;;10.30;99.90;;;;;;5006204;28;20209;-80
2021/10/24 02:29:37;;;;;;;8.20;5.80;;;10.30;99.90;;;;;;5004014;28;20572;-83
2021/10/24 02:32:04;;;;;;;9.15;4.90;;;10.30;99.90;;;;;;5007951;28;20256;-80
2021/10/24 02:34:32;;;;;;;10.93;5.90;;;10.30;99.90;;;;;;5003867;28;20255;-80
2021/10/24 02:36:59;;;;;;;7.63;5.57;;;10.30;99.90;;;;;;5003316;28;20205;-80
2021/10/24 02:39:26;;;;;;;6.38;5.07;;;10.30;99.90;;;;;;5000085;28;20197;-80
2021/10/24 02:41:53;;;;;;;5.35;4.85;;;10.30;99.90;;;;;;4998513;28;20657;-80
2021/10/24 02:44:22;;;;;;;7.60;4.55;;;10.30;99.90;;;;;;5009175;28;20455;-81
2021/10/24 02:46:51;;;;;;;13.02;4.95;;;10.30;99.90;;;;;;5006364;28;20190;-83
2021/10/24 02:49:19;;;;;;;6.82;4.80;;;10.20;99.90;;;;;;5001226;28;20202;-83
2021/10/24 02:51:48;;;;;;;12.95;5.53;;;10.20;99.90;;;;;;5002404;28;20228;-80
2021/10/24 02:54:16;;;;;;;10.90;5.57;;;10.20;99.90;;;;;;5005756;28;20225;-80
2021/10/24 02:56:44;;;;;;;10.25;5.15;;;10.20;99.90;;;;;;5005741;28;20572;-81
2021/10/24 02:59:11;;;;;;;15.38;6.85;;;10.20;99.90;;;;;;5005511;28;20653;-81
2021/10/24 03:01:38;;;;;;;9.82;5.80;;;10.20;99.90;;;;;;5004958;28;20205;-80
2021/10/24 03:04:10;;;;;;;12.13;4.75;;;10.20;99.90;;;;;;5004847;28;20676;-84
2021/10/24 03:06:37;;;;;;;10.25;4.80;;;10.20;99.90;;;;;;5001206;28;20616;-83
2021/10/24 03:09:05;;;;;;;10.60;5.40;;;10.20;99.90;;;;;;5001922;28;20195;-81
2021/10/24 03:11:32;;;;;;;11.95;5.68;;;10.20;99.90;;;;;;5001909;28;20229;-80
2021/10/24 03:13:59;;;;;;;5.70;5.20;;;10.20;99.90;;;;;;4995618;28;20319;-82
2021/10/24 03:16:26;;;;;;;11.57;6.05;;;10.20;99.90;;;;;;5005827;28;20197;-80
2021/10/24 03:18:53;;;;;;;5.93;5.32;;;10.10;99.90;;;;;;5005678;28;20198;-84
2021/10/24 03:21:21;;;;;;;10.15;5.75;;;10.10;99.90;;;;;;5003578;28;20211;-80
2021/10/24 03:23:48;;;;;;;9.20;6.65;;;10.10;99.90;;;;;;5001837;28;20638;-81
2021/10/24 03:26:16;;;;;;;7.75;5.50;;;10.10;99.90;;;;;;5005170;28;20197;-82
2021/10/24 03:28:43;;;;;;;9.18;5.32;;;10.10;99.90;;;;;;5003769;28;20219;-80
2021/10/24 03:31:11;;;;;;;9.15;6.47;;;10.10;99.90;;;;;;5001400;28;20248;-81
2021/10/24 03:33:39;;;;;;;8.18;5.55;;;10.10;99.90;;;;;;5007447;28;20201;-80
2021/10/24 03:36:06;;;;;;;6.05;5.45;;;10.10;99.90;;;;;;5005290;28;20196;-80
2021/10/24 03:38:35;;;;;;;10.90;5.63;;;10.10;99.90;;;;;;5004937;28;20216;-80
2021/10/24 03:41:02;;;;;;;12.00;6.20;;;10.10;99.90;;;;;;5004529;28;20209;-80
2021/10/24 03:43:29;;;;;;;6.53;5.65;;;10.00;99.90;;;;;;4998396;28;20831;-80
2021/10/24 03:45:56;;;;;;;7.18;5.97;;;10.00;99.90;;;;;;5001392;28;20645;-80
2021/10/24 03:48:23;;;;;;;10.85;5.28;;;10.00;99.90;;;;;;4999811;28;20226;-80
2021/10/24 03:50:50;;;;;;;6.47;5.65;;;10.00;99.90;;;;;;5004477;28;20219;-80
2021/10/24 03:53:18;;;;;;;12.30;5.82;;;10.00;99.90;;;;;;5001517;28;20567;-80
2021/10/24 03:55:48;;;;;;;7.00;5.90;;;10.00;99.90;;;;;;5003133;28;20245;-81
2021/10/24 03:58:15;;;;;;;14.27;5.78;;;10.00;99.90;;;;;;5005214;28;20261;-80
2021/10/24 04:00:42;;;;;;;8.30;5.55;;;10.00;99.90;;;;;;5000178;28;20692;-81
2021/10/24 04:03:10;;;;;;;6.97;5.55;;;9.90;99.90;;;;;;4995493;28;20405;-80
2021/10/24 04:05:39;;;;;;;9.27;6.95;;;9.90;99.90;;;;;;4999245;28;20207;-80
2021/10/24 04:08:06;;;;;;;8.93;6.05;;;9.90;99.90;;;;;;5002110;28;20198;-80
2021/10/24 04:10:33;;;;;;;7.18;5.70;;;9.90;99.90;;;;;;4992952;28;20285;-80
2021/10/24 04:13:01;;;;;;;7.63;6.50;;;9.90;99.90;;;;;;5000821;28;20200;-80
2021/10/24 04:15:28;;;;;;;5.53;4.93;;;9.90;99.90;;;;;;5000844;28;20212;-80
2021/10/24 04:17:57;;;;;;;13.20;6.57;;;9.90;99.90;;;;;;4999856;28;20269;-82
2021/10/24 04:20:24;;;;;;;16.10;6.65;;;9.90;99.90;;;;;;4999280;28;20601;-80
2021/10/24 04:22:54;;;;;;;6.22;5.63;;;9.90;99.90;;;;;;5002713;28;20657;-80
2021/10/24 04:25:24;;;;;;;7.93;5.90;;;9.90;99.90;;;;;;5002776;28;20195;-80
2021/10/24 04:27:52;;;;;;;10.02;6.32;;;9.90;99.90;;;;;;5002087;28;20336;-80
2021/10/24 04:30:21;;;;;;;8.68;5.45;;;9.90;99.90;;;;;;5005596;28;20227;-80
2021/10/24 04:32:49;;;;;;;9.05;6.13;;;9.90;99.90;;;;;;5003722;28;20707;-83
2021/10/24 04:35:17;;;;;;;12.35;6.60;;;9.90;99.90;;;;;;4996547;28;20207;-80
2021/10/24 04:37:45;;;;;;;16.08;6.32;;;9.90;99.90;;;;;;5001892;28;20258;-82
2021/10/24 04:40:13;;;;;;;15.93;7.40;;;9.90;99.90;;;;;;5002330;28;20190;-81
2021/10/24 04:42:41;;;;;;;7.18;6.47;;;9.90;99.90;;;;;;5003527;28;20200;-81
2021/10/24 04:45:09;;;;;;;7.30;6.55;;;9.80;99.90;;;;;;4999058;28;20196;-83
2021/10/24 04:47:38;;;;;;;8.55;6.47;;;9.80;99.90;;;;;;5003907;28;20205;-81
2021/10/24 04:50:06;;;;;;;8.93;6.43;;;9.80;99.90;;;;;;4999385;28;20189;-80
2021/10/24 04:52:34;;;;;;;16.27;8.18;;;9.90;99.90;;;;;;5004044;28;20223;-82
2021/10/24 04:55:01;;;;;;;10.15;6.60;;;9.80;99.90;;;;;;5003587;28;20283;-80
2021/10/24 04:57:28;;;;;;;12.60;7.20;;;9.80;99.90;;;;;;5002798;28;20196;-79
2021/10/24 04:59:55;;;;;;;10.20;7.45;;;9.80;99.90;;;;;;5002861;28;20197;-80
2021/10/24 05:02:22;;;;;;;9.75;6.93;;;9.80;99.90;;;;;;4998853;28;20220;-80
2021/10/24 05:04:50;;;;;;;11.88;6.75;;;9.80;99.90;;;;;;4994121;28;20670;-82
2021/10/24 05:07:17;;;;;;;12.48;7.35;;;9.80;99.90;;;;;;5000807;28;20569;-84
2021/10/24 05:09:44;;;;;;;9.88;7.72;;;9.80;99.90;;;;;;4998167;28;20671;-80
2021/10/24 05:12:11;;;;;;;7.00;6.00;;;9.80;99.90;;;;;;5005850;28;20247;-80
2021/10/24 05:14:38;;;;;;;10.05;6.65;;;9.80;99.90;;;;;;5002232;28;20201;-84
2021/10/24 05:17:06;;;;;;;8.85;6.65;;;9.80;99.90;;;;;;5003384;28;20191;-80
2021/10/24 05:19:33;;;;;;;8.38;7.40;;;9.70;99.90;;;;;;5001765;28;20198;-79
2021/10/24 05:22:02;;;;;;;16.70;8.15;;;9.70;99.90;;;;;;4998713;28;20205;-80
2021/10/24 05:24:29;;;;;;;10.10;6.75;;;9.70;99.90;;;;;;5003179;28;20287;-80
2021/10/24 05:26:56;;;;;;;16.02;6.97;;;9.60;99.90;;;;;;5001771;28;20220;-80
2021/10/24 05:29:24;;;;;;;9.23;8.05;;;9.60;99.90;;;;;;4998738;28;20245;-80
2021/10/24 05:31:51;;;;;;;15.40;7.90;;;9.60;99.90;;;;;;5002903;28;20234;-82
2021/10/24 05:34:18;;;;;;;8.93;7.25;;;9.60;99.90;;;;;;5002477;28;20196;-80
2021/10/24 05:36:46;;;;;;;11.40;7.45;;;9.60;99.90;;;;;;5004825;28;20201;-80
2021/10/24 05:39:15;;;;;;;8.75;6.32;;;9.60;99.90;;;;;;5002685;28;20202;-82
2021/10/24 05:41:43;;;;;;;9.20;7.65;;;9.60;99.90;;;;;;5005525;28;20674;-80
2021/10/24 05:44:12;;;;;;;10.07;7.80;;;9.50;99.90;;;;;;5004165;28;20209;-80
2021/10/24 05:46:40;;;;;;;13.05;8.18;;;9.50;99.90;;;;;;5008762;28;20201;-80
2021/10/24 05:49:07;;;;;;;12.32;7.85;;;9.50;99.90;;;;;;5000421;28;20216;-80
2021/10/24 05:51:34;;;;;;;13.55;7.60;;;9.50;99.90;;;;;;5003991;28;20279;-80
2021/10/24 05:54:02;;;;;;;13.15;7.63;;;9.50;99.90;;;;;;5004793;28;20216;-82
2021/10/24 05:56:31;;;;;;;10.20;7.60;;;9.50;99.90;;;;;;5002983;28;20204;-81
2021/10/24 05:58:58;;;;;;;11.40;8.68;;;9.40;99.90;;;;;;5007201;28;20199;-80
2021/10/24 06:01:26;;;;;;;14.20;8.18;;;9.40;99.90;;;;;;5006054;28;20582;-82
2021/10/24 06:03:54;;;;;;;10.63;7.35;;;9.40;99.90;;;;;;5002781;28;20260;-80
2021/10/24 06:06:22;;;;;;;32.38;20.80;;;9.40;99.90;;;;;;5007325;28;20193;-80
2021/10/24 06:08:49;;;;;;;24.08;17.17;;;9.40;99.90;;;;;;5003666;28;21063;-84
2021/10/24 06:11:25;;;;;;;10.13;8.63;;;9.40;99.90;;;;;;4999872;28;20733;-80
2021/10/24 06:13:55;;;;;;;13.68;8.43;;;9.40;99.90;;;;;;4998955;28;20227;-80
2021/10/24 06:16:22;;;;;;;11.10;7.93;;;9.40;99.90;;;;;;5008699;28;20731;-83
2021/10/24 06:18:50;;;;;;;14.60;8.43;;;9.30;99.90;;;;;;5000046;28;20246;-81
2021/10/24 06:21:17;;;;;;;13.80;7.70;;;9.30;99.90;;;;;;5002075;28;20197;-82
2021/10/24 06:23:45;;;;;;;9.50;8.30;;;9.30;99.90;;;;;;4999161;28;20205;-80
2021/10/24 06:26:12;;;;;;;15.82;8.80;;;9.30;99.90;;;;;;5007061;28;20203;-82
2021/10/24 06:28:39;;;;;;;9.55;8.40;;;9.30;99.90;;;;;;5006673;28;20218;-80
2021/10/24 06:31:08;;;;;;;12.15;7.93;;;9.30;99.90;;;;;;5007033;28;20209;-81
2021/10/24 06:33:34;;;;;;;11.05;8.82;;;9.30;99.90;;;;;;5004928;28;20197;-80
2021/10/24 06:36:01;;;;;;;9.35;7.75;;;9.30;99.90;;;;;;5003234;28;20193;-81
2021/10/24 06:38:31;;;;;;;12.00;8.68;;;9.30;99.90;;;;;;5004839;28;20197;-82
2021/10/24 06:40:58;;;;;;;13.00;9.02;;;9.30;99.90;;;;;;5003856;28;20720;-78
2021/10/24 06:43:26;;;;;;;12.45;8.60;;;9.30;99.90;;;;;;5000341;28;20197;-82
2021/10/24 06:45:54;;;;;;;8.48;7.47;;;9.30;99.90;;;;;;5003139;28;20243;-79
2021/10/24 06:48:23;;;;;;;16.80;8.32;;;9.30;99.90;;;;;;5001531;28;20198;-81
2021/10/24 06:50:50;;;;;;;12.82;8.70;;;9.40;99.90;;;;;;5004108;28;21009;-79
2021/10/24 06:53:17;;;;;;;9.75;7.40;;;9.40;99.90;;;;;;5005481;28;20220;-80
2021/10/24 06:55:44;;;;;;;11.95;8.65;;;9.40;99.90;;;;;;5008117;28;20293;-83
2021/10/24 06:58:12;;;;;;;12.25;8.70;;;9.40;99.90;;;;;;5006555;28;20192;-78
2021/10/24 07:00:39;;;;;;;9.43;8.00;;;9.40;99.90;;;;;;5003191;28;20207;-79
2021/10/24 07:03:06;;;;;;;13.65;8.30;;;9.40;99.90;;;;;;5001625;28;20301;-80
2021/10/24 07:05:37;;;;;;;10.57;7.80;;;9.40;99.90;;;;;;5003827;28;20203;-79
2021/10/24 07:08:06;;;;;;;10.45;7.75;;;9.40;99.90;;;;;;5004575;28;20208;-79
2021/10/24 07:10:34;;;;;;;11.15;8.27;;;9.40;99.90;;;;;;5004687;28;20648;-79
2021/10/24 07:13:01;;;;;;;14.77;8.27;;;9.50;99.90;;;;;;5002624;28;20219;-79
2021/10/24 07:15:28;;;;;;;9.95;8.27;;;9.50;99.90;;;;;;5004076;28;20299;-79
2021/10/24 07:17:55;;;;;;;15.13;8.90;;;9.50;99.90;;;;;;5006218;28;20192;-79
2021/10/24 07:20:22;;;;;;;17.52;8.77;;;9.60;99.90;;;;;;4999048;28;20215;-79
2021/10/24 07:22:51;;;;;;;10.55;7.88;;;9.60;99.90;;;;;;5007177;28;20202;-81
2021/10/24 07:25:18;;;;;;;11.02;8.48;;;9.60;99.90;;;;;;5004619;28;20209;-82
2021/10/24 07:27:46;;;;;;;12.48;7.50;;;9.60;99.90;;;;;;5001306;28;20243;-82
2021/10/24 07:30:14;;;;;;;12.70;8.68;;;9.60;99.90;;;;;;5002801;28;20190;-80
2021/10/24 07:32:41;;;;;;;13.15;7.97;;;9.70;99.90;;;;;;5004823;28;20691;-80
2021/10/24 07:35:09;;;;;;;9.73;8.80;;;9.70;99.90;;;;;;5006035;28;20213;-79
2021/10/24 07:37:37;;;;;;;10.32;8.57;;;9.70;99.90;;;;;;4997597;28;20341;-79
2021/10/24 07:40:08;;;;;;;9.32;8.32;;;9.80;99.90;;;;;;4999405;28;20220;-80
2021/10/24 07:42:35;;;;;;;13.95;9.30;;;9.80;99.90;;;;;;5003455;28;20688;-82
2021/10/24 07:45:02;;;;;;;11.02;8.95;;;9.80;99.90;;;;;;5000325;28;20201;-79
2021/10/24 07:47:31;;;;;;;12.23;8.57;;;9.80;99.90;;;;;;5006321;28;20229;-80
2021/10/24 07:49:59;;;;;;;12.32;8.82;;;9.80;99.90;;;;;;4997148;28;20714;-82
2021/10/24 07:52:25;;;;;;;11.43;9.20;;;9.70;99.90;;;;;;5002585;28;20252;-80
2021/10/24 07:54:53;;;;;;;9.93;7.60;;;9.70;99.90;;;;;;5003129;28;20229;-79
2021/10/24 07:57:21;;;;;;;10.20;7.97;;;9.70;99.90;;;;;;5003331;28;20207;-79
2021/10/24 07:59:48;;;;;;;13.25;8.48;;;9.70;99.90;;;;;;5004504;28;20208;-82
2021/10/24 08:02:18;;;;;;;13.38;7.72;;;9.70;99.90;;;;;;5003557;28;20232;-79
2021/10/24 08:04:45;;;;;;;15.68;8.07;;;9.70;99.90;;;;;;4996155;28;20200;-79
2021/10/24 08:07:12;;;;;;;10.48;9.00;;;9.70;99.90;;;;;;4996376;28;20201;-82
2021/10/24 08:09:39;;;;;;;11.00;8.10;;;9.70;99.90;;;;;;5002723;28;20679;-79
2021/10/24 08:12:07;;;;;;;9.30;7.30;;;9.80;99.90;;;;;;5001444;28;20307;-79
2021/10/24 08:14:35;;;;;;;10.43;8.35;;;9.80;99.90;;;;;;5004878;28;20201;-79
2021/10/24 08:17:05;;;;;;;13.00;8.63;;;9.90;99.90;;;;;;4994400;28;20198;-79
2021/10/24 08:19:32;;;;;;;11.18;8.38;;;9.90;99.90;;;;;;5001451;28;20208;-79
2021/10/24 08:21:59;;;;;;;9.82;8.55;;;10.00;99.90;;;;;;5003209;28;20210;-79
2021/10/24 08:24:26;;;;;;;14.88;8.75;;;10.10;99.90;;;;;;5000653;28;20197;-79
2021/10/24 08:26:54;;;;;;;10.57;8.75;;;10.10;99.90;;;;;;5003402;28;20190;-79
2021/10/24 08:29:22;;;;;;;11.38;8.27;;;10.10;99.90;;;;;;5000089;28;20211;-79
2021/10/24 08:31:53;;;;;;;8.05;7.25;;;10.20;99.90;;;;;;5005979;28;20248;-79
2021/10/24 08:34:21;;;;;;;10.50;8.43;;;10.20;99.90;;;;;;5001331;28;20221;-79
2021/10/24 08:36:49;;;;;;;18.20;10.00;;;10.30;99.90;;;;;;4999810;28;20292;-80
2021/10/24 08:39:16;;;;;;;13.82;8.60;;;10.30;99.90;;;;;;4997890;28;20232;-78
2021/10/24 08:41:44;;;;;;;12.85;9.15;;;10.30;99.90;;;;;;5002517;28;20586;-81
2021/10/24 08:44:11;;;;;;;10.80;8.18;;;10.30;99.90;;;;;;5001101;28;20205;-79
2021/10/24 08:46:39;;;;;;;12.20;8.32;;;10.40;99.90;;;;;;5007696;28;20667;-79
2021/10/24 08:49:09;;;;;;;13.93;8.80;;;10.40;99.90;;;;;;4996451;28;20667;-80
2021/10/24 08:51:36;;;;;;;12.13;8.40;;;10.40;99.90;;;;;;5003635;28;20584;-79
2021/10/24 08:54:03;;;;;;;13.98;8.52;;;10.40;99.90;;;;;;4996961;28;20233;-79
2021/10/24 08:56:31;;;;;;;11.73;8.40;;;10.40;99.90;;;;;;5004353;28;20264;-79
2021/10/24 08:58:59;;;;;;;35.72;22.13;;;10.40;99.90;;;;;;5000938;28;20221;-79
2021/10/24 09:01:26;;;;;;;25.95;17.60;;;10.40;99.90;;;;;;5004050;28;20206;-79
2021/10/24 09:04:05;;;;;;;15.15;11.50;;;10.50;99.90;;;;;;5002050;28;20647;-79
2021/10/24 09:06:55;;;;;;;15.90;10.10;;;10.50;99.90;;;;;;5002551;28;20781;-82
2021/10/24 09:09:23;;;;;;;13.98;9.85;;;10.60;99.90;;;;;;4999990;28;20198;-79
2021/10/24 09:11:58;;;;;;;12.18;9.15;;;10.60;99.90;;;;;;5002142;28;20559;-79
2021/10/24 09:14:46;;;;;;;11.27;8.73;;;10.60;99.90;;;;;;4996585;28;20208;-79
2021/10/24 09:17:19;;;;;;;13.68;8.40;;;10.60;99.90;;;;;;5001538;28;20283;-79
2021/10/24 09:19:49;;;;;;;10.50;7.80;;;10.60;99.90;;;;;;5002768;28;20198;-79
2021/10/24 09:22:36;;;;;;;11.07;7.80;;;10.70;99.90;;;;;;5004345;28;20232;-79
2021/10/24 09:25:09;;;;;;;9.70;8.18;;;10.70;99.90;;;;;;5001463;28;20210;-79
2021/10/24 09:27:47;;;;;;;15.70;7.50;;;10.70;99.90;;;;;;5003048;28;20201;-80
2021/10/24 09:30:16;;;;;;;10.50;8.60;;;10.80;99.90;;;;;;5001270;28;20199;-79
2021/10/24 09:32:48;;;;;;;12.98;8.75;;;10.90;99.90;;;;;;5001322;28;20253;-79
2021/10/24 09:35:15;;;;;;;11.50;8.07;;;10.90;99.90;;;;;;5002242;28;20208;-80
2021/10/24 09:37:48;;;;;;;9.93;7.72;;;10.90;99.90;;;;;;5002209;28;20206;-79
2021/10/24 09:40:16;;;;;;;12.55;8.35;;;11.00;99.90;;;;;;5001073;28;20248;-80
2021/10/24 09:42:43;;;;;;;9.70;7.25;;;11.00;99.90;;;;;;4999480;28;20201;-79
2021/10/24 09:45:13;;;;;;;11.30;8.15;;;11.00;99.90;;;;;;5000628;28;20564;-79
2021/10/24 09:47:43;;;;;;;10.88;8.40;;;11.10;99.90;;;;;;5003433;28;20605;-78
2021/10/24 09:50:27;;;;;;;8.52;7.57;;;11.10;99.90;;;;;;5002858;28;20206;-79
2021/10/24 09:53:10;;;;;;;10.52;8.23;;;11.10;99.90;;;;;;4997971;28;20589;-79
2021/10/24 09:55:37;;;;;;;16.98;9.02;;;11.20;99.90;;;;;;5002942;28;20252;-79
2021/10/24 09:58:04;;;;;;;10.85;8.63;;;11.20;99.90;;;;;;4997816;28;20297;-81
2021/10/24 10:00:32;;;;;;;14.60;8.15;;;11.20;99.90;;;;;;4999339;28;20207;-78
2021/10/24 10:03:00;;;;;;;16.67;8.10;;;11.30;99.90;;;;;;4994496;28;20200;-79
2021/10/24 10:05:28;;;;;;;9.23;7.93;;;11.30;99.90;;;;;;5004425;28;20210;-80
2021/10/24 10:07:56;;;;;;;13.32;8.13;;;11.30;99.90;;;;;;4994508;28;20652;-82
2021/10/24 10:10:25;;;;;;;13.48;7.72;;;11.30;99.90;;;;;;4998469;28;20203;-81
2021/10/24 10:12:55;;;;;;;10.70;7.95;;;11.40;99.90;;;;;;4998584;28;20226;-82
2021/10/24 10:15:22;;;;;;;14.13;8.02;;;11.40;99.90;;;;;;5000144;28;20195;-82
2021/10/24 10:17:57;;;;;;;9.10;7.57;;;11.40;99.90;;;;;;5005948;28;20226;-80
2021/10/24 10:20:26;;;;;;;8.90;7.10;;;11.40;99.90;;;;;;5005611;28;20541;-81
2021/10/24 10:23:04;;;;;;;8.00;6.93;;;11.50;99.90;;;;;;5002987;28;21394;-80
2021/10/24 10:25:33;;;;;;;8.97;6.53;;;11.50;99.90;;;;;;5004201;28;20203;-80
2021/10/24 10:28:00;;;;;;;8.68;6.70;;;11.50;99.90;;;;;;5004691;28;20477;-84
2021/10/24 10:30:38;;;;;;;10.63;6.60;;;11.60;99.90;;;;;;5008407;28;20217;-81
2021/10/24 10:33:30;;;;;;;8.55;6.38;;;11.60;99.90;;;;;;5001206;28;20272;-81
2021/10/24 10:35:58;;;;;;;10.57;6.80;;;11.60;99.90;;;;;;5003033;28;20654;-81
2021/10/24 10:38:39;;;;;;;7.15;5.43;;;11.60;99.90;;;;;;5006833;28;20666;-81
2021/10/24 10:41:11;;;;;;;7.22;6.47;;;11.70;99.90;;;;;;4998353;28;20224;-81
2021/10/24 10:43:38;;;;;;;13.63;6.65;;;11.70;99.90;;;;;;5003516;28;20197;-81
2021/10/24 10:46:06;;;;;;;6.75;5.72;;;11.80;99.90;;;;;;5004365;28;20203;-83
2021/10/24 10:48:37;;;;;;;8.18;5.55;;;11.80;99.90;;;;;;5002131;28;20289;-81
2021/10/24 10:51:15;;;;;;;10.18;6.18;;;11.80;99.90;;;;;;5006590;28;20206;-83
2021/10/24 10:54:04;;;;;;;12.80;5.75;;;11.80;99.90;;;;;;5000137;28;20276;-80
2021/10/24 10:56:46;;;;;;;8.30;6.20;;;11.90;99.90;;;;;;4999015;28;20301;-81
2021/10/24 10:59:36;;;;;;;8.15;5.63;;;11.90;99.90;;;;;;4996137;28;20461;-80
2021/10/24 11:02:27;;;;;;;9.20;6.00;;;11.90;99.90;;;;;;5000930;28;20204;-82
2021/10/24 11:04:57;;;;;;;11.60;6.85;;;11.90;99.90;;;;;;5004232;28;21072;-80
2021/10/24 11:07:39;;;;;;;8.97;7.07;;;12.00;99.90;;;;;;5008165;28;20280;-82
2021/10/24 11:10:08;;;;;;;11.40;6.67;;;12.00;99.90;;;;;;4998330;28;20541;-81
2021/10/24 11:12:43;;;;;;;9.70;6.17;;;12.00;99.90;;;;;;5002413;28;20988;-81
2021/10/24 11:15:15;;;;;;;8.75;6.38;;;12.00;99.90;;;;;;5004222;28;20457;-80
2021/10/24 11:17:44;;;;;;;10.80;5.90;;;12.00;99.90;;;;;;5001653;28;21031;-80
2021/10/24 11:20:24;;;;;;;7.70;6.03;;;12.00;99.90;;;;;;5001234;28;20462;-80
2021/10/24 11:23:00;;;;;;;7.80;6.77;;;12.00;99.90;;;;;;5004708;28;20462;-81
2021/10/24 11:25:31;;;;;;;10.73;7.50;;;12.00;99.90;;;;;;5003715;28;20450;-80
2021/10/24 11:28:03;;;;;;;8.63;6.70;;;12.00;99.90;;;;;;5002696;28;20211;-80
2021/10/24 11:30:30;;;;;;;13.30;7.30;;;12.00;99.90;;;;;;5002220;28;20460;-81
2021/10/24 11:32:57;;;;;;;13.55;7.03;;;12.00;99.90;;;;;;5006420;28;20545;-83
2021/10/24 11:35:25;;;;;;;8.63;7.70;;;12.00;99.90;;;;;;5003369;28;20217;-80
2021/10/24 11:37:54;;;;;;;9.83;7.67;;;12.00;99.90;;;;;;5005836;28;20465;-80
2021/10/24 11:40:24;;;;;;;9.33;6.87;;;12.00;99.90;;;;;;5002632;28;20465;-81
2021/10/24 11:43:03;;;;;;;8.63;6.47;;;12.00;99.90;;;;;;5007189;28;20471;-82
2021/10/24 11:45:34;;;;;;;13.73;7.20;;;12.10;99.90;;;;;;5005746;28;20449;-80
2021/10/24 11:48:04;;;;;;;7.80;6.10;;;12.10;99.90;;;;;;5002540;28;20461;-79
2021/10/24 11:50:55;;;;;;;13.27;7.47;;;12.10;99.90;;;;;;5001187;28;20520;-80
2021/10/24 11:53:28;;;;;;;8.87;6.80;;;12.10;99.90;;;;;;5001363;28;20482;-80
2021/10/24 11:55:56;;;;;;;9.10;5.97;;;12.10;99.90;;;;;;5005570;28;20511;-81
2021/10/24 12:01:14;;;;;;;7.03;5.70;;;12.20;99.90;;;;;;5007112;28;20464;-81
2021/10/24 12:03:43;;;;;;;11.63;7.97;;;12.20;99.90;;;;;;5006486;28;20203;-80
2021/10/24 12:06:12;;;;;;;18.08;13.70;;;12.30;99.90;;;;;;5005756;28;20214;-80
2021/10/24 12:08:50;;;;;;;14.60;6.70;;;12.30;99.90;;;;;;5000663;28;20885;-81
2021/10/24 12:11:40;;;;;;;7.97;6.20;;;12.30;99.90;;;;;;5000364;28;20465;-83
2021/10/24 12:14:06;;;;;;;60.00;7.30;;;12.40;99.90;;;;;;5002121;28;20487;-80
2021/10/24 12:16:37;;;;;;;208.87;20.17;;;12.40;99.90;;;;;;5003975;28;20462;-82
2021/10/24 12:19:27;;;;;;;91.63;14.30;;;12.40;99.90;;;;;;5003959;28;20466;-81
2021/10/24 12:22:09;;;;;;;55.23;9.43;;;12.50;99.90;;;;;;5003145;28;20458;-81
2021/10/24 12:24:46;;;;;;;11.43;6.40;;;12.50;99.90;;;;;;5006307;28;20569;-80
2021/10/24 12:27:29;;;;;;;7.27;6.33;;;12.60;99.90;;;;;;5002988;28;20505;-81
2021/10/24 12:30:01;;;;;;;9.43;4.90;;;12.60;99.90;;;;;;4999054;28;20465;-83
2021/10/24 12:32:28;;;;;;;10.10;6.07;;;12.60;99.90;;;;;;4999189;28;20470;-84
2021/10/24 12:35:04;;;;;;;5.20;4.47;;;12.70;99.90;;;;;;4993774;28;20485;-84
2021/10/24 12:37:33;;;;;;;11.57;5.80;;;12.70;99.90;;;;;;5000276;28;20491;-83
2021/10/24 12:40:21;;;;;;;6.53;5.27;;;12.70;99.90;;;;;;5000586;28;20457;-80
2021/10/24 12:43:18;;;;;;;25.03;6.83;;;12.80;99.90;;;;;;4996646;28;20843;-82
2021/10/24 12:45:52;;;;;;;9.30;4.63;;;12.80;99.90;;;;;;4939488;29;20501;-80
2021/10/24 12:48:21;;;;;;;9.20;5.63;;;12.80;99.90;;;;;;4989264;28;20468;-81
2021/10/24 12:50:49;;;;;;;12.47;5.30;;;12.80;99.90;;;;;;5000396;28;20548;-81
2021/10/24 12:53:19;;;;;;;7.83;4.90;;;12.90;99.90;;;;;;4998069;28;20468;-81
2021/10/24 12:56:00;;;;;;;7.40;4.80;;;12.90;99.90;;;;;;4998006;28;20498;-80
2021/10/24 12:58:27;;;;;;;7.47;4.83;;;12.90;99.90;;;;;;5001321;28;20476;-81